sensor_id;sensor_type;location;lat;lon;timestamp;P1;durP1;ratioP1;P2;durP2;ratioP2
59442;SDS011;45247;47.466;19.004;2023-02-17T00:00:12;56.22;;;30.20;;
59442;SDS011;45247;47.466;19.004;2023-02-17T00:02:42;51.08;;;29.55;;
59442;SDS011;45247;47.466;19.004;2023-02-17T00:05:10;46.65;;;27.38;;
59442;SDS011;45247;47.466;19.004;2023-02-17T00:07:39;51.17;;;28.95;;
59442;SDS011;45247;47.466;19.004;2023-02-17T00:10:07;54.08;;;30.33;;
59442;SDS011;45247;47.466;19.004;2023-02-17T00:12:36;56.05;;;30.05;;
59442;SDS011;45247;47.466;19.004;2023-02-17T00:15:04;53.80;;;30.45;;
59442;SDS011;45247;47.466;19.004;2023-02-17T00:17:33;51.72;;;29.23;;
59442;SDS011;45247;47.466;19.004;2023-02-17T00:20:04;55.25;;;31.88;;
59442;SDS011;45247;47.466;19.004;2023-02-17T00:22:33;55.92;;;32.15;;
59442;SDS011;45247;47.466;19.004;2023-02-17T00:25:03;57.80;;;31.73;;
59442;SDS011;45247;47.466;19.004;2023-02-17T00:27:31;56.55;;;32.78;;
59442;SDS011;45247;47.466;19.004;2023-02-17T00:29:59;51.35;;;30.75;;
59442;SDS011;45247;47.466;19.004;2023-02-17T00:32:27;63.88;;;34.17;;
59442;SDS011;45247;47.466;19.004;2023-02-17T00:34:57;51.15;;;29.80;;
59442;SDS011;45247;47.466;19.004;2023-02-17T00:37:28;58.38;;;32.38;;
59442;SDS011;45247;47.466;19.004;2023-02-17T00:39:56;53.00;;;30.92;;
59442;SDS011;45247;47.466;19.004;2023-02-17T00:42:24;58.60;;;33.90;;
59442;SDS011;45247;47.466;19.004;2023-02-17T00:44:52;58.38;;;32.78;;
59442;SDS011;45247;47.466;19.004;2023-02-17T00:47:20;58.15;;;32.88;;
59442;SDS011;45247;47.466;19.004;2023-02-17T00:49:48;68.10;;;37.40;;
59442;SDS011;45247;47.466;19.004;2023-02-17T00:52:17;58.20;;;33.45;;
59442;SDS011;45247;47.466;19.004;2023-02-17T00:54:46;64.88;;;35.90;;
59442;SDS011;45247;47.466;19.004;2023-02-17T00:57:14;67.80;;;36.22;;
59442;SDS011;45247;47.466;19.004;2023-02-17T00:59:42;57.42;;;31.63;;
59442;SDS011;45247;47.466;19.004;2023-02-17T01:02:10;60.60;;;33.85;;
59442;SDS011;45247;47.466;19.004;2023-02-17T01:04:39;60.47;;;33.80;;
59442;SDS011;45247;47.466;19.004;2023-02-17T01:07:07;62.67;;;34.08;;
59442;SDS011;45247;47.466;19.004;2023-02-17T01:09:35;55.20;;;31.48;;
59442;SDS011;45247;47.466;19.004;2023-02-17T01:12:05;56.55;;;31.95;;
59442;SDS011;45247;47.466;19.004;2023-02-17T01:14:33;54.67;;;30.10;;
59442;SDS011;45247;47.466;19.004;2023-02-17T01:17:01;57.95;;;32.60;;
59442;SDS011;45247;47.466;19.004;2023-02-17T01:19:29;54.05;;;32.33;;
59442;SDS011;45247;47.466;19.004;2023-02-17T01:21:58;54.70;;;31.70;;
59442;SDS011;45247;47.466;19.004;2023-02-17T01:24:26;55.30;;;32.13;;
59442;SDS011;45247;47.466;19.004;2023-02-17T01:26:54;52.67;;;30.80;;
59442;SDS011;45247;47.466;19.004;2023-02-17T01:29:24;53.58;;;31.20;;
59442;SDS011;45247;47.466;19.004;2023-02-17T01:31:52;53.95;;;29.83;;
59442;SDS011;45247;47.466;19.004;2023-02-17T01:34:20;50.60;;;28.85;;
59442;SDS011;45247;47.466;19.004;2023-02-17T01:36:48;51.50;;;28.52;;
59442;SDS011;45247;47.466;19.004;2023-02-17T01:39:16;52.60;;;31.58;;
59442;SDS011;45247;47.466;19.004;2023-02-17T01:41:45;54.50;;;32.03;;
59442;SDS011;45247;47.466;19.004;2023-02-17T01:44:14;58.05;;;33.45;;
59442;SDS011;45247;47.466;19.004;2023-02-17T01:46:46;54.75;;;31.05;;
59442;SDS011;45247;47.466;19.004;2023-02-17T01:49:20;59.13;;;33.63;;
59442;SDS011;45247;47.466;19.004;2023-02-17T01:51:55;60.47;;;34.47;;
59442;SDS011;45247;47.466;19.004;2023-02-17T01:54:29;56.97;;;31.88;;
59442;SDS011;45247;47.466;19.004;2023-02-17T01:57:02;52.90;;;30.65;;
59442;SDS011;45247;47.466;19.004;2023-02-17T01:59:31;62.92;;;32.58;;
59442;SDS011;45247;47.466;19.004;2023-02-17T02:02:02;53.38;;;30.52;;
59442;SDS011;45247;47.466;19.004;2023-02-17T02:04:32;52.50;;;30.88;;
59442;SDS011;45247;47.466;19.004;2023-02-17T02:07:05;56.08;;;31.23;;
59442;SDS011;45247;47.466;19.004;2023-02-17T02:09:40;60.10;;;31.17;;
59442;SDS011;45247;47.466;19.004;2023-02-17T02:12:16;53.08;;;30.27;;
59442;SDS011;45247;47.466;19.004;2023-02-17T02:14:47;53.83;;;29.73;;
59442;SDS011;45247;47.466;19.004;2023-02-17T02:17:20;49.67;;;28.45;;
59442;SDS011;45247;47.466;19.004;2023-02-17T02:20:18;48.95;;;28.30;;
59442;SDS011;45247;47.466;19.004;2023-02-17T02:26:23;51.08;;;27.38;;
59442;SDS011;45247;47.466;19.004;2023-02-17T02:32:21;52.33;;;30.30;;
59442;SDS011;45247;47.466;19.004;2023-02-17T02:34:58;43.17;;;26.02;;
59442;SDS011;45247;47.466;19.004;2023-02-17T02:37:35;47.30;;;24.95;;
59442;SDS011;45247;47.466;19.004;2023-02-17T02:40:09;41.42;;;24.70;;
59442;SDS011;45247;47.466;19.004;2023-02-17T02:42:41;44.97;;;26.67;;
59442;SDS011;45247;47.466;19.004;2023-02-17T02:45:11;45.95;;;25.65;;
59442;SDS011;45247;47.466;19.004;2023-02-17T02:47:50;40.50;;;24.73;;
59442;SDS011;45247;47.466;19.004;2023-02-17T02:50:20;42.75;;;23.70;;
59442;SDS011;45247;47.466;19.004;2023-02-17T02:53:02;42.58;;;23.90;;
59442;SDS011;45247;47.466;19.004;2023-02-17T02:56:03;37.92;;;21.52;;
59442;SDS011;45247;47.466;19.004;2023-02-17T02:58:37;37.35;;;21.90;;
59442;SDS011;45247;47.466;19.004;2023-02-17T03:01:16;39.35;;;21.50;;
59442;SDS011;45247;47.466;19.004;2023-02-17T03:03:56;37.80;;;21.15;;
59442;SDS011;45247;47.466;19.004;2023-02-17T03:06:35;39.50;;;21.20;;
59442;SDS011;45247;47.466;19.004;2023-02-17T03:09:08;35.90;;;20.95;;
59442;SDS011;45247;47.466;19.004;2023-02-17T03:11:39;35.83;;;21.17;;
59442;SDS011;45247;47.466;19.004;2023-02-17T03:14:09;36.38;;;20.40;;
59442;SDS011;45247;47.466;19.004;2023-02-17T03:16:39;33.45;;;19.38;;
59442;SDS011;45247;47.466;19.004;2023-02-17T03:19:10;36.75;;;21.58;;
59442;SDS011;45247;47.466;19.004;2023-02-17T03:21:41;38.20;;;21.00;;
59442;SDS011;45247;47.466;19.004;2023-02-17T03:24:14;34.25;;;20.90;;
59442;SDS011;45247;47.466;19.004;2023-02-17T03:26:42;34.60;;;20.45;;
59442;SDS011;45247;47.466;19.004;2023-02-17T03:29:11;36.00;;;20.60;;
59442;SDS011;45247;47.466;19.004;2023-02-17T03:31:39;33.38;;;21.08;;
59442;SDS011;45247;47.466;19.004;2023-02-17T03:34:08;35.65;;;21.40;;
59442;SDS011;45247;47.466;19.004;2023-02-17T03:36:37;36.22;;;21.30;;
59442;SDS011;45247;47.466;19.004;2023-02-17T03:39:05;41.72;;;23.00;;
59442;SDS011;45247;47.466;19.004;2023-02-17T03:41:33;39.25;;;22.70;;
59442;SDS011;45247;47.466;19.004;2023-02-17T03:44:02;33.58;;;20.08;;
59442;SDS011;45247;47.466;19.004;2023-02-17T03:46:30;34.08;;;20.40;;
59442;SDS011;45247;47.466;19.004;2023-02-17T03:48:58;34.20;;;19.92;;
59442;SDS011;45247;47.466;19.004;2023-02-17T03:51:28;34.47;;;20.17;;
59442;SDS011;45247;47.466;19.004;2023-02-17T03:53:56;38.80;;;23.05;;
59442;SDS011;45247;47.466;19.004;2023-02-17T03:56:24;35.05;;;20.52;;
59442;SDS011;45247;47.466;19.004;2023-02-17T03:58:52;32.75;;;19.55;;
59442;SDS011;45247;47.466;19.004;2023-02-17T04:01:21;36.88;;;20.00;;
59442;SDS011;45247;47.466;19.004;2023-02-17T04:03:49;33.83;;;20.30;;
59442;SDS011;45247;47.466;19.004;2023-02-17T04:06:18;39.13;;;21.42;;
59442;SDS011;45247;47.466;19.004;2023-02-17T04:08:48;31.95;;;20.42;;
59442;SDS011;45247;47.466;19.004;2023-02-17T04:11:16;34.20;;;21.45;;
59442;SDS011;45247;47.466;19.004;2023-02-17T04:13:44;34.78;;;21.73;;
59442;SDS011;45247;47.466;19.004;2023-02-17T04:16:13;36.20;;;21.40;;
59442;SDS011;45247;47.466;19.004;2023-02-17T04:18:41;36.45;;;20.23;;
59442;SDS011;45247;47.466;19.004;2023-02-17T04:21:09;36.90;;;21.77;;
59442;SDS011;45247;47.466;19.004;2023-02-17T04:23:38;34.45;;;20.75;;
59442;SDS011;45247;47.466;19.004;2023-02-17T04:26:08;30.83;;;18.85;;
59442;SDS011;45247;47.466;19.004;2023-02-17T04:28:36;37.92;;;20.35;;
59442;SDS011;45247;47.466;19.004;2023-02-17T04:31:05;35.35;;;20.17;;
59442;SDS011;45247;47.466;19.004;2023-02-17T04:33:34;34.95;;;19.88;;
59442;SDS011;45247;47.466;19.004;2023-02-17T04:36:03;36.72;;;20.77;;
59442;SDS011;45247;47.466;19.004;2023-02-17T04:38:33;33.95;;;19.67;;
59442;SDS011;45247;47.466;19.004;2023-02-17T04:41:01;34.15;;;20.38;;
59442;SDS011;45247;47.466;19.004;2023-02-17T04:43:31;38.92;;;21.67;;
59442;SDS011;45247;47.466;19.004;2023-02-17T04:46:00;36.15;;;21.23;;
59442;SDS011;45247;47.466;19.004;2023-02-17T04:48:29;39.97;;;22.13;;
59442;SDS011;45247;47.466;19.004;2023-02-17T04:50:57;37.13;;;21.38;;
59442;SDS011;45247;47.466;19.004;2023-02-17T04:53:25;37.55;;;21.48;;
59442;SDS011;45247;47.466;19.004;2023-02-17T04:55:54;35.72;;;20.05;;
59442;SDS011;45247;47.466;19.004;2023-02-17T04:58:22;33.47;;;20.42;;
59442;SDS011;45247;47.466;19.004;2023-02-17T05:00:51;35.92;;;21.17;;
59442;SDS011;45247;47.466;19.004;2023-02-17T05:03:20;41.72;;;22.77;;
59442;SDS011;45247;47.466;19.004;2023-02-17T05:05:48;39.25;;;22.67;;
59442;SDS011;45247;47.466;19.004;2023-02-17T05:08:16;39.47;;;21.42;;
59442;SDS011;45247;47.466;19.004;2023-02-17T05:10:44;31.73;;;19.88;;
59442;SDS011;45247;47.466;19.004;2023-02-17T05:13:12;37.55;;;21.98;;
59442;SDS011;45247;47.466;19.004;2023-02-17T05:15:41;33.80;;;20.15;;
59442;SDS011;45247;47.466;19.004;2023-02-17T05:18:12;37.17;;;21.10;;
59442;SDS011;45247;47.466;19.004;2023-02-17T05:20:40;36.97;;;21.25;;
59442;SDS011;45247;47.466;19.004;2023-02-17T05:23:09;34.38;;;21.40;;
59442;SDS011;45247;47.466;19.004;2023-02-17T05:25:37;33.72;;;20.08;;
59442;SDS011;45247;47.466;19.004;2023-02-17T05:28:06;36.22;;;20.75;;
59442;SDS011;45247;47.466;19.004;2023-02-17T05:30:34;36.40;;;20.55;;
59442;SDS011;45247;47.466;19.004;2023-02-17T05:33:02;36.17;;;21.10;;
59442;SDS011;45247;47.466;19.004;2023-02-17T05:35:33;34.03;;;20.13;;
59442;SDS011;45247;47.466;19.004;2023-02-17T05:38:02;37.60;;;20.70;;
59442;SDS011;45247;47.466;19.004;2023-02-17T05:40:30;32.40;;;20.15;;
59442;SDS011;45247;47.466;19.004;2023-02-17T05:42:58;30.40;;;19.60;;
59442;SDS011;45247;47.466;19.004;2023-02-17T05:45:26;33.65;;;20.17;;
59442;SDS011;45247;47.466;19.004;2023-02-17T05:47:54;32.13;;;18.80;;
59442;SDS011;45247;47.466;19.004;2023-02-17T05:50:23;32.70;;;20.48;;
59442;SDS011;45247;47.466;19.004;2023-02-17T05:52:52;32.58;;;19.70;;
59442;SDS011;45247;47.466;19.004;2023-02-17T05:55:21;36.85;;;21.35;;
59442;SDS011;45247;47.466;19.004;2023-02-17T05:57:49;34.65;;;20.55;;
59442;SDS011;45247;47.466;19.004;2023-02-17T06:00:17;33.47;;;19.63;;
59442;SDS011;45247;47.466;19.004;2023-02-17T06:02:45;32.15;;;19.48;;
59442;SDS011;45247;47.466;19.004;2023-02-17T06:05:14;34.40;;;20.52;;
59442;SDS011;45247;47.466;19.004;2023-02-17T06:07:42;38.72;;;20.77;;
59442;SDS011;45247;47.466;19.004;2023-02-17T06:10:12;31.75;;;19.58;;
59442;SDS011;45247;47.466;19.004;2023-02-17T06:12:40;33.85;;;18.67;;
59442;SDS011;45247;47.466;19.004;2023-02-17T06:15:08;33.00;;;20.10;;
59442;SDS011;45247;47.466;19.004;2023-02-17T06:17:37;33.60;;;19.30;;
59442;SDS011;45247;47.466;19.004;2023-02-17T06:20:05;32.97;;;19.38;;
59442;SDS011;45247;47.466;19.004;2023-02-17T06:22:34;34.55;;;20.52;;
59442;SDS011;45247;47.466;19.004;2023-02-17T06:25:02;34.40;;;19.45;;
59442;SDS011;45247;47.466;19.004;2023-02-17T06:27:32;33.53;;;20.00;;
59442;SDS011;45247;47.466;19.004;2023-02-17T06:30:02;29.80;;;18.92;;
59442;SDS011;45247;47.466;19.004;2023-02-17T06:32:31;36.85;;;22.92;;
59442;SDS011;45247;47.466;19.004;2023-02-17T06:35:00;34.97;;;20.40;;
59442;SDS011;45247;47.466;19.004;2023-02-17T06:37:28;33.97;;;21.02;;
59442;SDS011;45247;47.466;19.004;2023-02-17T06:39:57;35.08;;;20.33;;
59442;SDS011;45247;47.466;19.004;2023-02-17T06:42:25;35.33;;;20.48;;
59442;SDS011;45247;47.466;19.004;2023-02-17T06:44:54;32.22;;;19.77;;
59442;SDS011;45247;47.466;19.004;2023-02-17T06:47:23;36.58;;;19.60;;
59442;SDS011;45247;47.466;19.004;2023-02-17T06:49:51;38.53;;;22.02;;
59442;SDS011;45247;47.466;19.004;2023-02-17T06:52:19;41.78;;;20.42;;
59442;SDS011;45247;47.466;19.004;2023-02-17T06:54:47;41.53;;;20.65;;
59442;SDS011;45247;47.466;19.004;2023-02-17T06:57:15;41.90;;;19.92;;
59442;SDS011;45247;47.466;19.004;2023-02-17T06:59:44;59.17;;;22.48;;
59442;SDS011;45247;47.466;19.004;2023-02-17T07:02:13;41.10;;;21.98;;
59442;SDS011;45247;47.466;19.004;2023-02-17T07:04:42;35.15;;;19.15;;
59442;SDS011;45247;47.466;19.004;2023-02-17T07:07:11;31.48;;;19.27;;
59442;SDS011;45247;47.466;19.004;2023-02-17T07:09:39;38.33;;;19.83;;
59442;SDS011;45247;47.466;19.004;2023-02-17T07:12:07;32.85;;;20.42;;
59442;SDS011;45247;47.466;19.004;2023-02-17T07:14:35;50.28;;;22.33;;
59442;SDS011;45247;47.466;19.004;2023-02-17T07:17:04;50.20;;;22.45;;
59442;SDS011;45247;47.466;19.004;2023-02-17T07:19:33;41.78;;;23.23;;
59442;SDS011;45247;47.466;19.004;2023-02-17T07:22:01;46.67;;;22.50;;
59442;SDS011;45247;47.466;19.004;2023-02-17T07:24:30;40.13;;;22.08;;
59442;SDS011;45247;47.466;19.004;2023-02-17T07:26:59;37.20;;;21.60;;
59442;SDS011;45247;47.466;19.004;2023-02-17T07:29:27;39.25;;;21.92;;
59442;SDS011;45247;47.466;19.004;2023-02-17T07:31:55;33.95;;;20.52;;
59442;SDS011;45247;47.466;19.004;2023-02-17T07:34:24;34.05;;;19.98;;
59442;SDS011;45247;47.466;19.004;2023-02-17T07:36:54;32.58;;;19.35;;
59442;SDS011;45247;47.466;19.004;2023-02-17T07:39:22;36.55;;;20.65;;
59442;SDS011;45247;47.466;19.004;2023-02-17T07:41:50;42.45;;;21.00;;
59442;SDS011;45247;47.466;19.004;2023-02-17T07:44:18;42.95;;;21.80;;
59442;SDS011;45247;47.466;19.004;2023-02-17T07:46:46;37.05;;;21.25;;
59442;SDS011;45247;47.466;19.004;2023-02-17T07:49:14;34.47;;;20.15;;
59442;SDS011;45247;47.466;19.004;2023-02-17T07:51:43;32.28;;;20.33;;
59442;SDS011;45247;47.466;19.004;2023-02-17T07:54:13;34.95;;;20.27;;
59442;SDS011;45247;47.466;19.004;2023-02-17T07:56:41;37.67;;;19.60;;
59442;SDS011;45247;47.466;19.004;2023-02-17T07:59:09;41.10;;;21.02;;
59442;SDS011;45247;47.466;19.004;2023-02-17T08:01:38;36.17;;;20.85;;
59442;SDS011;45247;47.466;19.004;2023-02-17T08:04:07;36.63;;;20.80;;
59442;SDS011;45247;47.466;19.004;2023-02-17T08:06:36;32.33;;;19.45;;
59442;SDS011;45247;47.466;19.004;2023-02-17T08:09:04;35.38;;;20.20;;
59442;SDS011;45247;47.466;19.004;2023-02-17T08:11:52;30.27;;;18.75;;
59442;SDS011;45247;47.466;19.004;2023-02-17T08:14:37;33.53;;;19.13;;
59442;SDS011;45247;47.466;19.004;2023-02-17T08:17:05;31.35;;;18.17;;
59442;SDS011;45247;47.466;19.004;2023-02-17T08:19:34;33.15;;;19.75;;
59442;SDS011;45247;47.466;19.004;2023-02-17T08:22:14;34.58;;;18.23;;
59442;SDS011;45247;47.466;19.004;2023-02-17T08:24:42;29.02;;;18.45;;
59442;SDS011;45247;47.466;19.004;2023-02-17T08:27:12;36.95;;;19.85;;
59442;SDS011;45247;47.466;19.004;2023-02-17T08:29:40;41.28;;;19.15;;
59442;SDS011;45247;47.466;19.004;2023-02-17T08:32:09;35.20;;;18.40;;
59442;SDS011;45247;47.466;19.004;2023-02-17T08:34:38;30.20;;;17.10;;
59442;SDS011;45247;47.466;19.004;2023-02-17T08:37:07;27.77;;;16.98;;
59442;SDS011;45247;47.466;19.004;2023-02-17T08:39:36;26.90;;;16.58;;
59442;SDS011;45247;47.466;19.004;2023-02-17T08:42:04;27.25;;;16.65;;
59442;SDS011;45247;47.466;19.004;2023-02-17T08:44:34;30.40;;;16.20;;
59442;SDS011;45247;47.466;19.004;2023-02-17T08:47:03;24.92;;;15.13;;
59442;SDS011;45247;47.466;19.004;2023-02-17T08:49:33;25.55;;;14.85;;
59442;SDS011;45247;47.466;19.004;2023-02-17T08:52:01;26.25;;;14.50;;
59442;SDS011;45247;47.466;19.004;2023-02-17T08:54:30;19.70;;;13.65;;
59442;SDS011;45247;47.466;19.004;2023-02-17T08:56:58;24.27;;;13.38;;
59442;SDS011;45247;47.466;19.004;2023-02-17T08:59:27;22.88;;;13.02;;
59442;SDS011;45247;47.466;19.004;2023-02-17T09:01:56;20.85;;;12.68;;
59442;SDS011;45247;47.466;19.004;2023-02-17T09:04:25;25.00;;;13.50;;
59442;SDS011;45247;47.466;19.004;2023-02-17T09:06:53;22.98;;;13.98;;
59442;SDS011;45247;47.466;19.004;2023-02-17T09:09:24;23.48;;;13.93;;
59442;SDS011;45247;47.466;19.004;2023-02-17T09:11:54;26.38;;;12.82;;
59442;SDS011;45247;47.466;19.004;2023-02-17T09:14:23;27.52;;;13.25;;
59442;SDS011;45247;47.466;19.004;2023-02-17T09:16:52;20.27;;;12.07;;
59442;SDS011;45247;47.466;19.004;2023-02-17T09:19:23;20.20;;;11.55;;
59442;SDS011;45247;47.466;19.004;2023-02-17T09:21:52;18.00;;;10.43;;
59442;SDS011;45247;47.466;19.004;2023-02-17T09:24:20;18.38;;;10.52;;
59442;SDS011;45247;47.466;19.004;2023-02-17T09:26:49;18.90;;;11.07;;
59442;SDS011;45247;47.466;19.004;2023-02-17T09:29:17;19.40;;;10.57;;
59442;SDS011;45247;47.466;19.004;2023-02-17T09:31:45;16.88;;;10.07;;
59442;SDS011;45247;47.466;19.004;2023-02-17T09:34:14;18.63;;;10.57;;
59442;SDS011;45247;47.466;19.004;2023-02-17T09:36:44;17.35;;;9.45;;
59442;SDS011;45247;47.466;19.004;2023-02-17T09:39:12;18.92;;;10.13;;
59442;SDS011;45247;47.466;19.004;2023-02-17T09:41:41;22.80;;;11.02;;
59442;SDS011;45247;47.466;19.004;2023-02-17T09:44:15;17.33;;;10.85;;
59442;SDS011;45247;47.466;19.004;2023-02-17T09:46:50;19.40;;;10.63;;
59442;SDS011;45247;47.466;19.004;2023-02-17T09:49:30;19.73;;;10.50;;
59442;SDS011;45247;47.466;19.004;2023-02-17T09:52:06;20.33;;;11.30;;
59442;SDS011;45247;47.466;19.004;2023-02-17T09:54:40;19.63;;;10.38;;
59442;SDS011;45247;47.466;19.004;2023-02-17T09:57:15;17.77;;;10.35;;
59442;SDS011;45247;47.466;19.004;2023-02-17T09:59:47;24.65;;;12.00;;
59442;SDS011;45247;47.466;19.004;2023-02-17T10:02:24;15.50;;;9.93;;
59442;SDS011;45247;47.466;19.004;2023-02-17T10:04:59;21.50;;;10.05;;
59442;SDS011;45247;47.466;19.004;2023-02-17T10:07:34;22.00;;;11.60;;
59442;SDS011;45247;47.466;19.004;2023-02-17T10:10:07;18.67;;;11.43;;
59442;SDS011;45247;47.466;19.004;2023-02-17T10:12:39;16.83;;;11.13;;
59442;SDS011;45247;47.466;19.004;2023-02-17T10:15:11;19.15;;;11.30;;
59442;SDS011;45247;47.466;19.004;2023-02-17T10:17:46;23.85;;;11.38;;
59442;SDS011;45247;47.466;19.004;2023-02-17T10:20:21;20.17;;;11.60;;
59442;SDS011;45247;47.466;19.004;2023-02-17T10:22:54;18.65;;;10.30;;
59442;SDS011;45247;47.466;19.004;2023-02-17T10:25:32;16.23;;;10.88;;
59442;SDS011;45247;47.466;19.004;2023-02-17T10:28:15;17.88;;;11.88;;
59442;SDS011;45247;47.466;19.004;2023-02-17T10:30:51;24.05;;;14.75;;
59442;SDS011;45247;47.466;19.004;2023-02-17T10:33:27;31.92;;;17.55;;
59442;SDS011;45247;47.466;19.004;2023-02-17T10:36:05;32.28;;;19.00;;
59442;SDS011;45247;47.466;19.004;2023-02-17T10:38:47;29.00;;;18.33;;
59442;SDS011;45247;47.466;19.004;2023-02-17T10:41:19;35.53;;;20.48;;
59442;SDS011;45247;47.466;19.004;2023-02-17T10:46:20;36.13;;;19.60;;
59442;SDS011;45247;47.466;19.004;2023-02-17T10:48:54;34.67;;;18.85;;
59442;SDS011;45247;47.466;19.004;2023-02-17T10:51:24;33.25;;;19.58;;
59442;SDS011;45247;47.466;19.004;2023-02-17T10:53:57;30.00;;;20.05;;
59442;SDS011;45247;47.466;19.004;2023-02-17T10:56:31;36.38;;;21.17;;
59442;SDS011;45247;47.466;19.004;2023-02-17T10:59:05;38.28;;;22.73;;
59442;SDS011;45247;47.466;19.004;2023-02-17T11:01:44;33.92;;;21.00;;
59442;SDS011;45247;47.466;19.004;2023-02-17T11:04:12;33.58;;;22.13;;
59442;SDS011;45247;47.466;19.004;2023-02-17T11:06:46;30.93;;;19.53;;
59442;SDS011;45247;47.466;19.004;2023-02-17T11:09:19;25.63;;;18.13;;
59442;SDS011;45247;47.466;19.004;2023-02-17T11:11:56;29.33;;;18.80;;
59442;SDS011;45247;47.466;19.004;2023-02-17T11:14:29;27.33;;;17.55;;
59442;SDS011;45247;47.466;19.004;2023-02-17T11:16:59;23.95;;;16.67;;
59442;SDS011;45247;47.466;19.004;2023-02-17T11:19:30;28.83;;;17.63;;
59442;SDS011;45247;47.466;19.004;2023-02-17T11:22:01;31.10;;;18.38;;
59442;SDS011;45247;47.466;19.004;2023-02-17T11:24:33;35.60;;;18.13;;
59442;SDS011;45247;47.466;19.004;2023-02-17T11:27:02;29.85;;;16.27;;
59442;SDS011;45247;47.466;19.004;2023-02-17T11:32:04;25.40;;;15.48;;
59442;SDS011;45247;47.466;19.004;2023-02-17T11:34:35;26.23;;;15.50;;
59442;SDS011;45247;47.466;19.004;2023-02-17T11:37:13;27.10;;;16.38;;
59442;SDS011;45247;47.466;19.004;2023-02-17T11:39:49;31.05;;;17.60;;
59442;SDS011;45247;47.466;19.004;2023-02-17T11:42:20;34.97;;;21.17;;
59442;SDS011;45247;47.466;19.004;2023-02-17T11:44:58;36.08;;;23.08;;
59442;SDS011;45247;47.466;19.004;2023-02-17T11:47:29;35.97;;;21.42;;
59442;SDS011;45247;47.466;19.004;2023-02-17T11:53:12;36.60;;;21.55;;
59442;SDS011;45247;47.466;19.004;2023-02-17T11:55:53;35.38;;;22.17;;
59442;SDS011;45247;47.466;19.004;2023-02-17T11:58:37;33.67;;;22.08;;
59442;SDS011;45247;47.466;19.004;2023-02-17T12:01:28;35.65;;;20.00;;
59442;SDS011;45247;47.466;19.004;2023-02-17T12:10:09;36.03;;;20.30;;
59442;SDS011;45247;47.466;19.004;2023-02-17T12:12:53;33.58;;;20.42;;
59442;SDS011;45247;47.466;19.004;2023-02-17T12:15:38;36.53;;;21.98;;
59442;SDS011;45247;47.466;19.004;2023-02-17T12:18:23;33.95;;;22.33;;
59442;SDS011;45247;47.466;19.004;2023-02-17T12:21:05;36.15;;;22.70;;
59442;SDS011;45247;47.466;19.004;2023-02-17T12:23:45;34.45;;;22.95;;
59442;SDS011;45247;47.466;19.004;2023-02-17T12:26:26;36.08;;;22.33;;
59442;SDS011;45247;47.466;19.004;2023-02-17T12:29:07;38.13;;;23.42;;
59442;SDS011;45247;47.466;19.004;2023-02-17T12:32:03;39.80;;;23.88;;
59442;SDS011;45247;47.466;19.004;2023-02-17T12:34:42;38.53;;;24.58;;
59442;SDS011;45247;47.466;19.004;2023-02-17T12:37:16;46.80;;;25.52;;
59442;SDS011;45247;47.466;19.004;2023-02-17T12:39:48;40.00;;;25.77;;
59442;SDS011;45247;47.466;19.004;2023-02-17T12:42:21;38.95;;;24.98;;
59442;SDS011;45247;47.466;19.004;2023-02-17T12:47:25;37.75;;;23.67;;
59442;SDS011;45247;47.466;19.004;2023-02-17T12:50:00;36.05;;;23.58;;
59442;SDS011;45247;47.466;19.004;2023-02-17T12:52:31;38.63;;;24.35;;
59442;SDS011;45247;47.466;19.004;2023-02-17T12:55:09;36.10;;;23.63;;
59442;SDS011;45247;47.466;19.004;2023-02-17T12:57:47;36.15;;;22.95;;
59442;SDS011;45247;47.466;19.004;2023-02-17T13:00:23;38.22;;;23.35;;
59442;SDS011;45247;47.466;19.004;2023-02-17T13:02:56;38.58;;;25.60;;
59442;SDS011;45247;47.466;19.004;2023-02-17T13:05:25;36.42;;;22.75;;
59442;SDS011;45247;47.466;19.004;2023-02-17T13:07:59;35.10;;;22.83;;
59442;SDS011;45247;47.466;19.004;2023-02-17T13:10:35;39.80;;;22.90;;
59442;SDS011;45247;47.466;19.004;2023-02-17T13:13:06;36.53;;;23.25;;
59442;SDS011;45247;47.466;19.004;2023-02-17T13:15:39;41.88;;;23.98;;
59442;SDS011;45247;47.466;19.004;2023-02-17T13:18:12;41.10;;;24.20;;
59442;SDS011;45247;47.466;19.004;2023-02-17T13:20:55;34.72;;;23.73;;
59442;SDS011;45247;47.466;19.004;2023-02-17T13:23:26;35.95;;;22.95;;
59442;SDS011;45247;47.466;19.004;2023-02-17T13:26:22;40.38;;;24.58;;
59442;SDS011;45247;47.466;19.004;2023-02-17T13:28:53;38.22;;;23.55;;
59442;SDS011;45247;47.466;19.004;2023-02-17T13:31:44;37.55;;;25.80;;
59442;SDS011;45247;47.466;19.004;2023-02-17T13:34:25;38.60;;;24.98;;
59442;SDS011;45247;47.466;19.004;2023-02-17T13:36:54;35.78;;;23.65;;
59442;SDS011;45247;47.466;19.004;2023-02-17T13:39:31;42.28;;;24.73;;
59442;SDS011;45247;47.466;19.004;2023-02-17T13:42:01;35.25;;;23.75;;
59442;SDS011;45247;47.466;19.004;2023-02-17T13:44:31;39.72;;;24.13;;
59442;SDS011;45247;47.466;19.004;2023-02-17T13:47:11;38.13;;;24.58;;
59442;SDS011;45247;47.466;19.004;2023-02-17T13:49:50;38.58;;;24.80;;
59442;SDS011;45247;47.466;19.004;2023-02-17T13:52:21;36.92;;;24.20;;
59442;SDS011;45247;47.466;19.004;2023-02-17T13:54:51;39.65;;;24.70;;
59442;SDS011;45247;47.466;19.004;2023-02-17T13:57:24;44.33;;;26.05;;
59442;SDS011;45247;47.466;19.004;2023-02-17T14:00:05;40.58;;;24.98;;
59442;SDS011;45247;47.466;19.004;2023-02-17T14:02:37;39.42;;;25.80;;
59442;SDS011;45247;47.466;19.004;2023-02-17T14:05:15;57.10;;;24.83;;
59442;SDS011;45247;47.466;19.004;2023-02-17T14:07:46;38.25;;;24.52;;
59442;SDS011;45247;47.466;19.004;2023-02-17T14:10:19;41.42;;;23.77;;
59442;SDS011;45247;47.466;19.004;2023-02-17T14:12:51;40.22;;;25.80;;
59442;SDS011;45247;47.466;19.004;2023-02-17T14:15:22;37.72;;;24.98;;
59442;SDS011;45247;47.466;19.004;2023-02-17T14:17:53;35.53;;;23.17;;
59442;SDS011;45247;47.466;19.004;2023-02-17T14:20:23;38.05;;;24.77;;
59442;SDS011;45247;47.466;19.004;2023-02-17T14:23:03;38.30;;;23.98;;
59442;SDS011;45247;47.466;19.004;2023-02-17T14:25:35;40.40;;;25.33;;
59442;SDS011;45247;47.466;19.004;2023-02-17T14:28:15;42.95;;;25.38;;
59442;SDS011;45247;47.466;19.004;2023-02-17T14:30:45;39.75;;;24.73;;
59442;SDS011;45247;47.466;19.004;2023-02-17T14:33:19;44.97;;;25.90;;
59442;SDS011;45247;47.466;19.004;2023-02-17T14:35:51;39.10;;;24.85;;
59442;SDS011;45247;47.466;19.004;2023-02-17T14:38:21;41.08;;;26.30;;
59442;SDS011;45247;47.466;19.004;2023-02-17T14:40:50;42.30;;;23.67;;
59442;SDS011;45247;47.466;19.004;2023-02-17T14:43:21;34.90;;;24.30;;
59442;SDS011;45247;47.466;19.004;2023-02-17T14:45:50;42.22;;;24.38;;
59442;SDS011;45247;47.466;19.004;2023-02-17T14:48:20;47.25;;;24.92;;
59442;SDS011;45247;47.466;19.004;2023-02-17T14:50:51;38.55;;;22.83;;
59442;SDS011;45247;47.466;19.004;2023-02-17T14:53:24;41.10;;;24.02;;
59442;SDS011;45247;47.466;19.004;2023-02-17T14:55:57;38.30;;;23.52;;